createdAt,value
2019-03-27T00:00:08.826Z,29.15
2019-03-27T00:02:37.062Z,33.50
2019-03-27T00:05:05.375Z,31.02
2019-03-27T00:07:33.602Z,26.57
2019-03-27T00:10:01.853Z,36.40
2019-03-27T00:12:31.354Z,36.75
2019-03-27T00:15:12.192Z,27.17
2019-03-27T00:17:31.851Z,31.97
2019-03-27T00:20:00.162Z,28.65
2019-03-27T00:22:28.607Z,36.17
2019-03-27T00:24:56.855Z,27.73
2019-03-27T00:27:25.435Z,31.90
2019-03-27T00:29:53.694Z,31.77
2019-03-27T00:32:21.962Z,33.25
2019-03-27T00:34:50.253Z,37.78
2019-03-27T00:37:18.498Z,39.48
2019-03-27T00:39:46.744Z,26.30
2019-03-27T00:42:15.146Z,33.92
2019-03-27T00:44:43.409Z,38.17
2019-03-27T00:47:11.634Z,36.85
2019-03-27T00:49:40.169Z,33.80
2019-03-27T00:52:08.416Z,29.18
2019-03-27T00:54:36.658Z,32.98
2019-03-27T00:57:04.901Z,33.08
2019-03-27T00:59:33.526Z,39.50
2019-03-27T01:02:02.192Z,37.58
2019-03-27T01:04:30.776Z,33.83
2019-03-27T01:06:59.274Z,31.55
2019-03-27T01:09:28.435Z,42.20
2019-03-27T01:11:56.951Z,33.75
2019-03-27T01:14:25.265Z,37.15
2019-03-27T01:16:55.299Z,30.02
2019-03-27T01:19:23.547Z,26.05
2019-03-27T01:21:52.690Z,28.45
2019-03-27T01:24:21.223Z,33.95
2019-03-27T01:26:49.452Z,30.92
2019-03-27T01:29:17.946Z,41.18
2019-03-27T01:31:46.467Z,31.95
2019-03-27T01:34:14.723Z,43.05
2019-03-27T01:36:43.235Z,30.00
2019-03-27T01:39:11.475Z,34.23
2019-03-27T01:41:39.722Z,34.73
2019-03-27T01:44:08.970Z,37.48
2019-03-27T01:46:37.475Z,34.83
2019-03-27T01:49:05.710Z,34.65
2019-03-27T01:51:34.259Z,38.53
2019-03-27T01:54:02.506Z,36.20
2019-03-27T01:56:30.756Z,39.80
2019-03-27T01:58:58.995Z,29.80
2019-03-27T02:01:27.579Z,35.17
2019-03-27T02:03:55.819Z,32.45
2019-03-27T02:06:24.073Z,33.83
2019-03-27T02:08:52.313Z,39.13
2019-03-27T02:11:20.571Z,38.88
2019-03-27T02:13:48.813Z,31.85
2019-03-27T02:16:17.361Z,40.48
2019-03-27T02:18:45.607Z,45.63
2019-03-27T02:21:14.129Z,37.45
2019-03-27T02:23:43.292Z,38.65
2019-03-27T02:26:11.543Z,34.80
2019-03-27T02:28:40.096Z,31.93
2019-03-27T02:31:08.687Z,37.23
2019-03-27T02:33:36.941Z,35.48
2019-03-27T02:36:06.301Z,34.05
2019-03-27T02:38:34.675Z,33.75
2019-03-27T02:41:03.368Z,36.63
2019-03-27T02:43:31.676Z,42.90
2019-03-27T02:45:59.936Z,39.70
2019-03-27T02:48:28.176Z,38.38
2019-03-27T02:50:56.432Z,40.25
2019-03-27T02:53:24.668Z,32.40
2019-03-27T02:55:52.936Z,33.48
2019-03-27T02:58:21.253Z,33.40
2019-03-27T03:00:49.512Z,38.48
2019-03-27T03:03:17.754Z,36.40
2019-03-27T03:05:46.004Z,35.78
2019-03-27T03:08:14.249Z,36.35
2019-03-27T03:10:45.503Z,39.88
2019-03-27T03:13:13.045Z,33.23
2019-03-27T03:15:41.630Z,31.85
2019-03-27T03:18:09.895Z,42.38
2019-03-27T03:20:38.136Z,38.00
2019-03-27T03:23:07.364Z,39.98
2019-03-27T03:25:35.611Z,42.35
2019-03-27T03:28:04.844Z,43.60
2019-03-27T03:30:33.375Z,45.35
2019-03-27T03:33:01.699Z,44.65
2019-03-27T03:35:30.333Z,46.33
2019-03-27T03:37:59.490Z,48.38
2019-03-27T03:40:27.813Z,50.12
2019-03-27T03:42:56.167Z,50.00
2019-03-27T03:45:24.479Z,55.15
2019-03-27T03:47:52.734Z,48.28
2019-03-27T03:50:39.839Z,51.70
2019-03-27T03:53:11.920Z,51.63
2019-03-27T03:55:40.747Z,49.88
2019-03-27T03:58:11.287Z,64.22
2019-03-27T04:00:39.684Z,59.53
2019-03-27T04:03:07.931Z,66.90
2019-03-27T04:05:36.514Z,62.53
2019-03-27T04:08:05.836Z,55.17
2019-03-27T04:10:34.080Z,52.27
2019-03-27T04:13:02.335Z,67.72
2019-03-27T04:15:30.858Z,49.83
2019-03-27T04:17:59.117Z,46.70
2019-03-27T04:20:27.357Z,50.48
2019-03-27T04:22:56.596Z,59.13
2019-03-27T04:25:24.848Z,50.15
2019-03-27T04:27:53.102Z,52.62
2019-03-27T04:30:21.344Z,45.95
2019-03-27T04:32:49.587Z,53.35
2019-03-27T04:35:17.846Z,59.73
2019-03-27T04:37:48.256Z,51.73
2019-03-27T04:40:16.841Z,48.92
2019-03-27T04:42:46.424Z,51.40
2019-03-27T04:45:14.683Z,62.53
2019-03-27T04:47:43.964Z,64.75
2019-03-27T04:50:12.216Z,65.57
2019-03-27T04:52:40.481Z,63.68
2019-03-27T04:55:08.997Z,55.23
2019-03-27T04:57:37.567Z,62.67
2019-03-27T05:00:07.252Z,67.22
2019-03-27T05:02:35.880Z,62.03
2019-03-27T05:05:06.543Z,59.30
2019-03-27T05:07:35.771Z,69.97
2019-03-27T05:10:04.959Z,61.05
2019-03-27T05:12:33.211Z,62.50
2019-03-27T05:15:01.699Z,67.42
2019-03-27T05:17:29.955Z,55.67
2019-03-27T05:19:58.564Z,66.87
2019-03-27T05:22:26.823Z,58.52
2019-03-27T05:24:55.063Z,64.53
2019-03-27T05:27:23.317Z,64.50
2019-03-27T05:29:51.547Z,53.90
2019-03-27T05:32:19.813Z,60.95
2019-03-27T05:34:48.051Z,75.00
2019-03-27T05:37:16.293Z,67.97
2019-03-27T05:39:44.545Z,61.73
2019-03-27T05:42:12.788Z,61.42
2019-03-27T05:44:41.957Z,67.30
2019-03-27T05:47:10.190Z,72.82
2019-03-27T05:49:38.448Z,64.40
2019-03-27T05:52:06.691Z,73.60
2019-03-27T05:54:34.940Z,83.47
2019-03-27T05:57:03.468Z,71.70
2019-03-27T05:59:31.734Z,76.70
2019-03-27T06:01:59.976Z,72.75
2019-03-27T06:04:28.227Z,71.35
2019-03-27T06:06:56.476Z,81.25
2019-03-27T06:09:25.087Z,64.37
2019-03-27T06:11:53.580Z,78.45
2019-03-27T06:14:22.148Z,87.37
2019-03-27T06:16:50.856Z,85.20
2019-03-27T06:19:19.427Z,96.45
2019-03-27T06:21:48.012Z,84.70
2019-03-27T06:24:16.326Z,95.92
2019-03-27T06:26:44.583Z,78.85
2019-03-27T06:29:15.871Z,95.85
2019-03-27T06:31:43.772Z,86.40
2019-03-27T06:34:12.285Z,76.00
2019-03-27T06:36:40.531Z,75.55
2019-03-27T06:39:09.053Z,75.65
2019-03-27T06:41:37.309Z,76.30
2019-03-27T06:44:05.556Z,70.37
2019-03-27T06:46:34.097Z,80.70
2019-03-27T06:49:02.375Z,77.30
2019-03-27T06:51:39.821Z,74.35
2019-03-27T06:54:02.655Z,69.80
2019-03-27T06:56:31.287Z,72.12
2019-03-27T06:58:59.628Z,69.87
2019-03-27T07:01:28.186Z,72.67
2019-03-27T07:04:09.586Z,70.85
2019-03-27T07:06:27.095Z,73.25
2019-03-27T07:08:55.339Z,74.77
2019-03-27T07:11:25.597Z,71.28
2019-03-27T07:13:53.916Z,71.95
2019-03-27T07:16:22.471Z,76.85
2019-03-27T07:18:51.061Z,84.83
2019-03-27T07:21:19.644Z,67.58
2019-03-27T07:23:48.279Z,71.37
2019-03-27T07:26:16.597Z,67.17
2019-03-27T07:28:45.103Z,58.85
2019-03-27T07:31:13.687Z,67.58
2019-03-27T07:33:41.976Z,66.57
2019-03-27T07:36:10.223Z,72.22
2019-03-27T07:38:38.739Z,64.95
2019-03-27T07:41:08.247Z,76.33
2019-03-27T07:43:36.833Z,67.42
2019-03-27T07:46:05.431Z,59.75
2019-03-27T07:48:34.024Z,63.35
2019-03-27T07:51:02.599Z,67.22
2019-03-27T07:53:31.031Z,58.13
2019-03-27T07:55:59.267Z,64.77
2019-03-27T07:58:27.519Z,55.60
2019-03-27T08:00:55.752Z,56.00
2019-03-27T08:03:25.248Z,59.95
2019-03-27T08:05:53.493Z,55.00
2019-03-27T08:08:21.743Z,51.23
2019-03-27T08:10:49.989Z,64.58
2019-03-27T08:13:19.140Z,56.18
2019-03-27T08:15:47.390Z,61.92
2019-03-27T08:18:15.649Z,54.00
2019-03-27T08:20:45.444Z,64.47
2019-03-27T08:23:14.031Z,62.85
2019-03-27T08:25:42.652Z,53.35
2019-03-27T08:28:11.208Z,49.10
2019-03-27T08:30:39.796Z,54.27
2019-03-27T08:33:08.039Z,51.70
2019-03-27T08:35:36.292Z,49.90
2019-03-27T08:38:04.535Z,43.48
2019-03-27T08:40:33.128Z,46.73
2019-03-27T08:43:01.712Z,49.60
2019-03-27T08:45:30.303Z,41.37
2019-03-27T08:47:58.891Z,43.40
2019-03-27T08:50:28.065Z,42.38
2019-03-27T08:52:56.316Z,49.58
2019-03-27T08:55:24.849Z,44.27
2019-03-27T08:57:53.098Z,43.25
2019-03-27T09:00:27.421Z,42.58
2019-03-27T09:02:55.668Z,39.48
2019-03-27T09:05:23.913Z,40.78
2019-03-27T09:07:52.172Z,40.60
2019-03-27T09:10:20.408Z,35.80
2019-03-27T09:12:48.699Z,35.78
2019-03-27T09:15:16.970Z,38.33
2019-03-27T09:17:45.224Z,36.15
2019-03-27T09:20:13.800Z,33.53
2019-03-27T09:22:42.387Z,36.83
2019-03-27T09:25:10.628Z,36.17
2019-03-27T09:27:39.156Z,36.88
2019-03-27T09:30:10.825Z,38.15
2019-03-27T09:32:39.422Z,38.05
2019-03-27T09:35:07.655Z,32.75
2019-03-27T09:37:35.908Z,31.60
2019-03-27T09:40:05.183Z,35.25
2019-03-27T09:42:33.753Z,35.73
2019-03-27T09:45:01.988Z,33.05
2019-03-27T09:47:30.255Z,27.35
2019-03-27T09:49:58.518Z,24.82
2019-03-27T09:52:26.763Z,21.35
2019-03-27T09:54:55.012Z,29.95
2019-03-27T09:57:23.260Z,26.93
2019-03-27T09:59:51.539Z,27.13
2019-03-27T10:02:19.846Z,29.70
2019-03-27T10:04:48.981Z,25.90
2019-03-27T10:07:17.589Z,24.77
2019-03-27T10:09:50.105Z,29.27
2019-03-27T10:12:16.725Z,22.22
2019-03-27T10:14:47.564Z,28.07
2019-03-27T10:17:14.964Z,25.70
2019-03-27T10:19:43.223Z,23.47
2019-03-27T10:22:11.772Z,17.52
2019-03-27T10:24:40.356Z,22.70
2019-03-27T10:27:08.619Z,21.00
2019-03-27T10:29:37.223Z,16.67
2019-03-27T10:32:05.815Z,15.65
2019-03-27T10:34:34.055Z,15.60
2019-03-27T10:37:02.310Z,22.02
2019-03-27T10:39:30.804Z,19.55
2019-03-27T10:41:59.055Z,16.60
2019-03-27T10:44:27.295Z,15.88
2019-03-27T10:46:55.552Z,15.60
2019-03-27T10:49:24.088Z,17.30
2019-03-27T10:51:52.340Z,19.92
2019-03-27T10:54:20.577Z,15.00
2019-03-27T10:56:49.133Z,13.70
2019-03-27T10:59:17.718Z,15.13
2019-03-27T11:01:45.971Z,11.97
2019-03-27T11:04:14.496Z,15.60
2019-03-27T11:06:43.072Z,16.35
2019-03-27T11:09:11.663Z,13.18
2019-03-27T11:11:40.252Z,11.75
2019-03-27T11:14:08.839Z,13.22
2019-03-27T11:16:37.335Z,13.35
2019-03-27T11:19:05.913Z,11.93
2019-03-27T11:21:34.169Z,12.28
2019-03-27T11:24:02.694Z,12.63
2019-03-27T11:26:30.956Z,10.70
2019-03-27T11:28:59.205Z,11.65
2019-03-27T11:31:27.728Z,11.35
2019-03-27T11:33:56.006Z,9.75
2019-03-27T11:36:24.324Z,12.50
2019-03-27T11:38:53.904Z,12.88
2019-03-27T11:41:23.059Z,11.25
2019-03-27T11:43:55.041Z,9.00
2019-03-27T11:46:22.186Z,9.75
2019-03-27T11:48:50.444Z,13.68
2019-03-27T11:51:18.984Z,11.05
2019-03-27T11:53:48.407Z,10.55
2019-03-27T11:56:18.921Z,8.45
2019-03-27T11:58:48.428Z,11.20
2019-03-27T12:01:16.683Z,10.85
2019-03-27T12:03:44.928Z,9.98
2019-03-27T12:06:13.192Z,10.80
2019-03-27T12:08:41.519Z,10.78
2019-03-27T12:11:09.755Z,10.68
2019-03-27T12:13:38.311Z,9.40
2019-03-27T12:16:06.563Z,10.60
2019-03-27T12:18:35.083Z,8.95
2019-03-27T12:21:03.676Z,9.95
2019-03-27T12:23:32.263Z,12.37
2019-03-27T12:26:00.512Z,11.70
2019-03-27T12:28:28.821Z,12.05
2019-03-27T12:30:57.449Z,14.65
2019-03-27T12:33:26.102Z,11.03
2019-03-27T12:35:54.686Z,8.13
2019-03-27T12:38:22.933Z,8.38
2019-03-27T12:40:51.179Z,5.83
2019-03-27T12:43:19.752Z,7.72
2019-03-27T12:45:48.319Z,7.95
2019-03-27T12:48:16.571Z,8.03
2019-03-27T12:50:45.101Z,7.47
2019-03-27T12:53:13.675Z,7.95
2019-03-27T12:55:41.943Z,8.93
2019-03-27T12:58:11.902Z,7.22
2019-03-27T13:00:40.277Z,6.95
2019-03-27T13:03:08.525Z,8.48
2019-03-27T13:05:37.140Z,10.30
2019-03-27T13:08:05.413Z,9.63
2019-03-27T13:10:33.672Z,11.10
2019-03-27T13:13:01.927Z,10.63
2019-03-27T13:15:30.187Z,7.62
2019-03-27T13:17:58.740Z,14.68
2019-03-27T13:20:26.978Z,10.25
2019-03-27T13:22:55.527Z,8.03
2019-03-27T13:25:24.112Z,7.17
2019-03-27T13:27:52.361Z,8.43
2019-03-27T13:30:20.773Z,5.78
2019-03-27T13:32:49.335Z,8.43
2019-03-27T13:35:17.930Z,9.00
2019-03-27T13:37:46.183Z,8.50
2019-03-27T13:40:14.428Z,9.28
2019-03-27T13:42:42.696Z,6.67
2019-03-27T13:45:10.931Z,7.53
2019-03-27T13:47:39.549Z,8.15
2019-03-27T13:50:13.239Z,9.58
2019-03-27T13:52:41.733Z,6.78
2019-03-27T13:55:10.047Z,6.67
2019-03-27T13:57:38.303Z,5.87
2019-03-27T14:00:08.528Z,5.20
2019-03-27T14:02:36.841Z,6.78
2019-03-27T14:05:05.945Z,8.53
2019-03-27T14:07:34.481Z,6.97
2019-03-27T14:10:02.713Z,6.62
2019-03-27T14:12:31.248Z,7.28
2019-03-27T14:14:59.490Z,6.78
2019-03-27T14:17:27.755Z,7.95
2019-03-27T14:19:56.963Z,4.85
2019-03-27T14:22:25.232Z,6.00
2019-03-27T14:24:53.772Z,5.67
2019-03-27T14:27:22.360Z,6.35
2019-03-27T14:29:50.609Z,9.93
2019-03-27T14:32:18.865Z,9.43
2019-03-27T14:34:47.404Z,8.65
2019-03-27T14:37:15.667Z,8.78
2019-03-27T14:39:43.899Z,6.78
2019-03-27T14:42:12.468Z,6.85
2019-03-27T14:44:41.051Z,6.65
2019-03-27T14:47:09.637Z,6.65
2019-03-27T14:49:38.221Z,5.30
2019-03-27T14:52:08.495Z,6.47
2019-03-27T14:54:36.440Z,9.83
2019-03-27T14:57:05.013Z,9.85
2019-03-27T14:59:33.595Z,8.55
2019-03-27T15:02:02.100Z,7.75
2019-03-27T15:04:30.674Z,8.95
2019-03-27T15:06:58.923Z,9.08
2019-03-27T15:09:27.435Z,9.38
2019-03-27T15:11:55.686Z,5.72
2019-03-27T15:14:23.933Z,7.10
2019-03-27T15:16:52.476Z,9.93
2019-03-27T15:19:20.736Z,8.15
2019-03-27T15:21:49.256Z,7.67
2019-03-27T15:24:20.453Z,7.47
2019-03-27T15:26:47.841Z,7.33
2019-03-27T15:29:16.092Z,9.08
2019-03-27T15:31:44.335Z,8.28
2019-03-27T15:34:12.587Z,7.50
2019-03-27T15:36:40.831Z,8.75
2019-03-27T15:39:09.093Z,11.30
2019-03-27T15:41:37.640Z,11.15
2019-03-27T15:44:06.247Z,13.32
2019-03-27T15:46:34.484Z,11.40
2019-03-27T15:49:02.749Z,14.28
2019-03-27T15:51:31.075Z,11.35
2019-03-27T15:53:59.315Z,12.05
2019-03-27T15:56:27.564Z,11.95
2019-03-27T15:58:56.448Z,11.73
2019-03-27T16:01:25.222Z,12.55
2019-03-27T16:03:53.807Z,12.23
2019-03-27T16:06:22.401Z,11.88
2019-03-27T16:08:50.659Z,12.18
2019-03-27T16:11:19.167Z,10.05
2019-03-27T16:13:47.427Z,9.98
2019-03-27T16:16:15.928Z,10.93
2019-03-27T16:18:44.187Z,12.95
2019-03-27T16:21:12.711Z,12.70
2019-03-27T16:23:40.972Z,12.55
2019-03-27T16:26:09.236Z,11.08
2019-03-27T16:28:37.496Z,13.28
2019-03-27T16:31:05.820Z,12.28
2019-03-27T16:33:34.315Z,12.03
2019-03-27T16:36:02.579Z,11.65
2019-03-27T16:38:30.844Z,13.95
2019-03-27T16:40:59.099Z,15.98
2019-03-27T16:43:27.728Z,11.53
2019-03-27T16:45:56.316Z,11.97
2019-03-27T16:48:24.578Z,13.00
2019-03-27T16:50:53.084Z,13.80
2019-03-27T16:53:21.667Z,10.95
2019-03-27T16:55:49.914Z,13.38
2019-03-27T16:58:18.443Z,14.93
2019-03-27T17:00:46.683Z,13.80
2019-03-27T17:03:14.934Z,12.47
2019-03-27T17:05:53.388Z,84.22
2019-03-27T17:08:13.194Z,15.40
2019-03-27T17:10:41.431Z,15.90
2019-03-27T17:13:10.683Z,16.60
2019-03-27T17:15:38.923Z,16.05
2019-03-27T17:18:07.183Z,13.75
2019-03-27T17:20:35.427Z,16.42
2019-03-27T17:23:17.050Z,14.03
2019-03-27T17:25:33.676Z,15.88
2019-03-27T17:28:02.307Z,17.73
2019-03-27T17:30:31.949Z,14.07
2019-03-27T17:33:00.612Z,16.97
2019-03-27T17:35:28.864Z,17.20
2019-03-27T17:37:57.483Z,17.27
2019-03-27T17:40:25.963Z,14.95
2019-03-27T17:42:54.230Z,17.85
2019-03-27T17:45:22.480Z,12.65
2019-03-27T17:47:50.719Z,11.05
2019-03-27T17:50:19.321Z,12.30
2019-03-27T17:52:47.611Z,10.93
2019-03-27T17:55:15.874Z,10.30
2019-03-27T17:57:44.443Z,11.33
2019-03-27T18:00:14.799Z,11.43
2019-03-27T18:02:43.047Z,15.45
2019-03-27T18:05:11.305Z,13.45
2019-03-27T18:07:39.547Z,11.48
2019-03-27T18:10:08.095Z,14.18
2019-03-27T18:12:36.337Z,15.18
2019-03-27T18:15:06.529Z,12.78
2019-03-27T18:17:34.771Z,12.25
2019-03-27T18:20:03.011Z,13.70
2019-03-27T18:22:31.255Z,12.37
2019-03-27T18:24:59.507Z,12.47
2019-03-27T18:27:28.020Z,12.10
2019-03-27T18:29:56.271Z,15.03
2019-03-27T18:32:24.500Z,11.30
2019-03-27T18:34:53.052Z,16.07
2019-03-27T18:37:21.319Z,12.50
2019-03-27T18:39:49.568Z,15.05
2019-03-27T18:42:18.095Z,11.93
2019-03-27T18:44:46.688Z,16.60
2019-03-27T18:47:15.272Z,13.53
2019-03-27T18:49:43.510Z,16.30
2019-03-27T18:52:12.012Z,18.52
2019-03-27T18:54:40.253Z,22.52
2019-03-27T18:57:08.514Z,70.17
2019-03-27T18:59:36.743Z,83.00
2019-03-27T19:02:05.274Z,33.58
2019-03-27T19:04:34.672Z,79.22
2019-03-27T19:07:02.939Z,195.80
2019-03-27T19:09:31.550Z,66.57
2019-03-27T19:11:59.799Z,92.00
2019-03-27T19:14:28.043Z,312.75
2019-03-27T19:16:56.307Z,243.90
2019-03-27T19:19:24.867Z,21.33
2019-03-27T19:21:54.061Z,170.28
2019-03-27T19:24:22.659Z,65.78
2019-03-27T19:26:50.909Z,36.88
2019-03-27T19:29:19.235Z,24.27
2019-03-27T19:31:47.476Z,19.50
2019-03-27T19:34:15.735Z,17.65
2019-03-27T19:36:44.363Z,18.70
2019-03-27T19:39:12.956Z,17.48
2019-03-27T19:41:41.267Z,20.57
2019-03-27T19:44:10.045Z,23.18
2019-03-27T19:46:38.365Z,23.98
2019-03-27T19:49:06.616Z,37.40
2019-03-27T19:51:34.851Z,34.58
2019-03-27T19:54:03.471Z,31.48
2019-03-27T19:56:32.067Z,33.55
2019-03-27T19:59:00.334Z,36.33
2019-03-27T20:01:29.015Z,32.50
2019-03-27T20:03:57.279Z,38.10
2019-03-27T20:06:25.828Z,77.53
2019-03-27T20:08:56.681Z,45.83
2019-03-27T20:11:24.545Z,89.55
2019-03-27T20:13:53.181Z,38.60
2019-03-27T20:16:21.453Z,33.00
2019-03-27T20:18:49.710Z,38.28
2019-03-27T20:21:17.952Z,39.67
2019-03-27T20:23:46.203Z,39.40
2019-03-27T20:26:14.447Z,35.88
2019-03-27T20:28:42.712Z,37.58
2019-03-27T20:31:10.947Z,34.33
2019-03-27T20:33:39.190Z,31.87
2019-03-27T20:36:07.716Z,32.90
2019-03-27T20:38:35.965Z,40.55
2019-03-27T20:41:04.211Z,35.58
2019-03-27T20:43:32.456Z,35.17
2019-03-27T20:46:00.712Z,38.13
2019-03-27T20:48:28.969Z,39.95
2019-03-27T20:50:57.501Z,34.18
2019-03-27T20:53:25.748Z,38.73
2019-03-27T20:55:54.004Z,39.15
2019-03-27T20:58:22.543Z,34.03
2019-03-27T21:00:51.133Z,40.50
2019-03-27T21:03:19.398Z,36.13
2019-03-27T21:05:47.896Z,38.50
2019-03-27T21:08:16.163Z,47.98
2019-03-27T21:10:44.402Z,45.78
2019-03-27T21:13:12.954Z,54.18
2019-03-27T21:15:41.550Z,53.02
2019-03-27T21:18:09.800Z,54.13
2019-03-27T21:20:38.067Z,47.58
2019-03-27T21:23:06.315Z,57.17
2019-03-27T21:25:34.995Z,76.62
2019-03-27T21:28:03.548Z,49.33
2019-03-27T21:30:32.143Z,41.92
2019-03-27T21:33:00.402Z,39.92
2019-03-27T21:35:29.024Z,38.92
2019-03-27T21:37:57.272Z,40.50
2019-03-27T21:40:25.884Z,71.22
2019-03-27T21:42:54.130Z,44.58
2019-03-27T21:45:22.383Z,41.75
2019-03-27T21:47:50.619Z,53.80
2019-03-27T21:50:19.199Z,45.83
2019-03-27T21:52:59.850Z,44.63
2019-03-27T21:55:22.863Z,58.35
2019-03-27T21:57:47.396Z,71.20
2019-03-27T22:00:18.987Z,66.20
2019-03-27T22:02:48.608Z,51.13
2019-03-27T22:05:16.875Z,46.45
2019-03-27T22:07:45.123Z,76.00
2019-03-27T22:10:13.640Z,54.03
2019-03-27T22:12:41.904Z,49.83
2019-03-27T22:15:10.155Z,44.70
2019-03-27T22:17:38.683Z,52.67
2019-03-27T22:20:07.472Z,45.38
2019-03-27T22:22:36.083Z,39.95
2019-03-27T22:25:06.792Z,34.75
2019-03-27T22:27:35.025Z,30.95
2019-03-27T22:30:04.317Z,35.35
2019-03-27T22:32:32.919Z,30.82
2019-03-27T22:35:01.212Z,28.92
2019-03-27T22:37:29.459Z,30.92
2019-03-27T22:39:58.025Z,30.62
2019-03-27T22:42:26.279Z,31.07
2019-03-27T22:44:54.523Z,32.40
2019-03-27T22:47:23.036Z,28.00
2019-03-27T22:49:51.355Z,28.57
2019-03-27T22:52:19.603Z,32.17
2019-03-27T22:54:47.848Z,32.98
2019-03-27T22:57:16.492Z,32.95
2019-03-27T22:59:45.083Z,33.20
2019-03-27T23:02:16.539Z,31.20
2019-03-27T23:04:44.788Z,35.28
2019-03-27T23:07:13.344Z,39.95
2019-03-27T23:09:41.917Z,33.90
2019-03-27T23:12:10.253Z,34.78
2019-03-27T23:14:38.600Z,34.65
2019-03-27T23:17:07.140Z,32.73
2019-03-27T23:19:35.636Z,35.35
2019-03-27T23:22:04.149Z,35.55
2019-03-27T23:24:32.459Z,38.23
2019-03-27T23:27:00.983Z,41.13
2019-03-27T23:29:29.569Z,43.87
2019-03-27T23:31:57.803Z,38.60
2019-03-27T23:34:26.333Z,44.38
2019-03-27T23:36:54.935Z,38.80
2019-03-27T23:39:24.097Z,36.70
2019-03-27T23:41:52.488Z,42.17
2019-03-27T23:44:21.096Z,41.00
2019-03-27T23:46:49.334Z,40.10
2019-03-27T23:49:17.863Z,37.30
2019-03-27T23:51:46.447Z,45.48
2019-03-27T23:54:14.714Z,47.90
2019-03-27T23:56:42.955Z,41.98
2019-03-27T23:59:11.199Z,42.08
